sensor_id;sensor_type;location;lat;lon;timestamp;P1;durP1;ratioP1;P2;durP2;ratioP2
70313;SDS011;57725;47.526;18.986;2023-04-15T00:00:18;6.38;;;4.40;;
70313;SDS011;57725;47.526;18.986;2023-04-15T00:02:46;5.90;;;4.10;;
70313;SDS011;57725;47.526;18.986;2023-04-15T00:05:12;5.75;;;4.07;;
70313;SDS011;57725;47.526;18.986;2023-04-15T00:07:37;6.55;;;4.43;;
70313;SDS011;57725;47.526;18.986;2023-04-15T00:10:06;6.60;;;4.32;;
70313;SDS011;57725;47.526;18.986;2023-04-15T00:12:32;6.80;;;4.75;;
70313;SDS011;57725;47.526;18.986;2023-04-15T00:14:57;6.00;;;4.38;;
70313;SDS011;57725;47.526;18.986;2023-04-15T00:17:23;6.03;;;4.53;;
70313;SDS011;57725;47.526;18.986;2023-04-15T00:19:48;5.63;;;4.00;;
70313;SDS011;57725;47.526;18.986;2023-04-15T00:22:16;5.78;;;4.10;;
70313;SDS011;57725;47.526;18.986;2023-04-15T00:24:44;5.75;;;4.47;;
70313;SDS011;57725;47.526;18.986;2023-04-15T00:27:10;6.07;;;4.05;;
70313;SDS011;57725;47.526;18.986;2023-04-15T00:29:35;5.97;;;4.40;;
70313;SDS011;57725;47.526;18.986;2023-04-15T00:32:01;5.85;;;4.30;;
70313;SDS011;57725;47.526;18.986;2023-04-15T00:34:26;5.32;;;3.88;;
70313;SDS011;57725;47.526;18.986;2023-04-15T00:36:52;5.35;;;4.15;;
70313;SDS011;57725;47.526;18.986;2023-04-15T00:39:21;5.43;;;4.13;;
70313;SDS011;57725;47.526;18.986;2023-04-15T00:41:52;5.35;;;4.28;;
70313;SDS011;57725;47.526;18.986;2023-04-15T00:44:20;4.97;;;3.90;;
70313;SDS011;57725;47.526;18.986;2023-04-15T00:46:48;6.00;;;4.22;;
70313;SDS011;57725;47.526;18.986;2023-04-15T00:49:15;5.55;;;4.35;;
70313;SDS011;57725;47.526;18.986;2023-04-15T00:51:42;6.10;;;4.25;;
70313;SDS011;57725;47.526;18.986;2023-04-15T00:54:08;5.38;;;4.07;;
70313;SDS011;57725;47.526;18.986;2023-04-15T00:56:35;6.03;;;4.65;;
70313;SDS011;57725;47.526;18.986;2023-04-15T00:59:05;5.43;;;4.20;;
70313;SDS011;57725;47.526;18.986;2023-04-15T01:01:32;6.57;;;4.60;;
70313;SDS011;57725;47.526;18.986;2023-04-15T01:03:59;5.15;;;3.75;;
70313;SDS011;57725;47.526;18.986;2023-04-15T01:06:28;7.10;;;4.85;;
70313;SDS011;57725;47.526;18.986;2023-04-15T01:08:59;5.07;;;4.10;;
70313;SDS011;57725;47.526;18.986;2023-04-15T01:11:24;6.03;;;4.93;;
70313;SDS011;57725;47.526;18.986;2023-04-15T01:13:53;6.30;;;4.53;;
70313;SDS011;57725;47.526;18.986;2023-04-15T01:16:21;6.28;;;4.60;;
70313;SDS011;57725;47.526;18.986;2023-04-15T01:18:47;5.65;;;4.28;;
70313;SDS011;57725;47.526;18.986;2023-04-15T01:21:13;6.10;;;4.68;;
70313;SDS011;57725;47.526;18.986;2023-04-15T01:23:38;5.65;;;4.30;;
70313;SDS011;57725;47.526;18.986;2023-04-15T01:26:04;5.68;;;4.68;;
70313;SDS011;57725;47.526;18.986;2023-04-15T01:28:32;5.40;;;4.43;;
70313;SDS011;57725;47.526;18.986;2023-04-15T01:31:10;6.43;;;4.63;;
70313;SDS011;57725;47.526;18.986;2023-04-15T01:33:38;5.55;;;4.25;;
70313;SDS011;57725;47.526;18.986;2023-04-15T01:36:09;7.10;;;5.20;;
70313;SDS011;57725;47.526;18.986;2023-04-15T01:38:35;5.97;;;4.55;;
70313;SDS011;57725;47.526;18.986;2023-04-15T01:41:03;5.85;;;4.68;;
70313;SDS011;57725;47.526;18.986;2023-04-15T01:43:31;6.78;;;5.05;;
70313;SDS011;57725;47.526;18.986;2023-04-15T01:45:57;5.75;;;4.38;;
70313;SDS011;57725;47.526;18.986;2023-04-15T01:48:22;5.80;;;4.40;;
70313;SDS011;57725;47.526;18.986;2023-04-15T01:50:48;5.40;;;4.30;;
70313;SDS011;57725;47.526;18.986;2023-04-15T01:53:15;5.68;;;4.20;;
70313;SDS011;57725;47.526;18.986;2023-04-15T01:55:41;6.10;;;4.53;;
70313;SDS011;57725;47.526;18.986;2023-04-15T01:58:06;5.68;;;4.38;;
70313;SDS011;57725;47.526;18.986;2023-04-15T02:00:32;5.60;;;4.43;;
70313;SDS011;57725;47.526;18.986;2023-04-15T02:03:00;5.50;;;4.53;;
70313;SDS011;57725;47.526;18.986;2023-04-15T02:05:28;5.90;;;4.55;;
70313;SDS011;57725;47.526;18.986;2023-04-15T02:07:53;5.32;;;4.32;;
70313;SDS011;57725;47.526;18.986;2023-04-15T02:10:18;5.47;;;4.35;;
70313;SDS011;57725;47.526;18.986;2023-04-15T02:12:44;5.30;;;4.38;;
70313;SDS011;57725;47.526;18.986;2023-04-15T02:15:12;5.25;;;4.03;;
70313;SDS011;57725;47.526;18.986;2023-04-15T02:17:40;4.95;;;4.40;;
70313;SDS011;57725;47.526;18.986;2023-04-15T02:20:09;5.43;;;4.18;;
70313;SDS011;57725;47.526;18.986;2023-04-15T02:22:37;5.60;;;4.40;;
70313;SDS011;57725;47.526;18.986;2023-04-15T02:25:03;5.47;;;4.60;;
70313;SDS011;57725;47.526;18.986;2023-04-15T02:27:31;6.68;;;4.93;;
70313;SDS011;57725;47.526;18.986;2023-04-15T02:30:03;5.25;;;4.60;;
70313;SDS011;57725;47.526;18.986;2023-04-15T02:32:29;7.07;;;4.53;;
70313;SDS011;57725;47.526;18.986;2023-04-15T02:35:01;6.00;;;4.70;;
70313;SDS011;57725;47.526;18.986;2023-04-15T02:37:28;4.55;;;4.07;;
70313;SDS011;57725;47.526;18.986;2023-04-15T02:39:55;5.82;;;4.80;;
70313;SDS011;57725;47.526;18.986;2023-04-15T02:42:20;5.57;;;4.47;;
70313;SDS011;57725;47.526;18.986;2023-04-15T02:44:46;5.55;;;4.40;;
70313;SDS011;57725;47.526;18.986;2023-04-15T02:47:16;5.07;;;4.30;;
70313;SDS011;57725;47.526;18.986;2023-04-15T02:49:44;5.63;;;4.43;;
70313;SDS011;57725;47.526;18.986;2023-04-15T02:52:09;5.30;;;4.30;;
70313;SDS011;57725;47.526;18.986;2023-04-15T02:54:37;6.05;;;4.43;;
70313;SDS011;57725;47.526;18.986;2023-04-15T02:57:03;5.68;;;4.30;;
70313;SDS011;57725;47.526;18.986;2023-04-15T02:59:30;5.40;;;4.25;;
70313;SDS011;57725;47.526;18.986;2023-04-15T03:01:58;5.50;;;4.03;;
70313;SDS011;57725;47.526;18.986;2023-04-15T03:04:26;5.60;;;4.60;;
70313;SDS011;57725;47.526;18.986;2023-04-15T03:06:56;5.68;;;4.00;;
70313;SDS011;57725;47.526;18.986;2023-04-15T03:09:21;5.32;;;4.20;;
70313;SDS011;57725;47.526;18.986;2023-04-15T03:11:47;5.72;;;4.55;;
70313;SDS011;57725;47.526;18.986;2023-04-15T03:14:17;5.93;;;4.88;;
70313;SDS011;57725;47.526;18.986;2023-04-15T03:16:45;5.38;;;4.00;;
70313;SDS011;57725;47.526;18.986;2023-04-15T03:19:10;5.05;;;3.85;;
70313;SDS011;57725;47.526;18.986;2023-04-15T03:21:38;5.38;;;4.43;;
70313;SDS011;57725;47.526;18.986;2023-04-15T03:24:04;5.68;;;4.47;;
70313;SDS011;57725;47.526;18.986;2023-04-15T03:26:30;5.57;;;4.47;;
70313;SDS011;57725;47.526;18.986;2023-04-15T03:28:58;5.72;;;4.70;;
70313;SDS011;57725;47.526;18.986;2023-04-15T03:31:23;5.38;;;4.10;;
70313;SDS011;57725;47.526;18.986;2023-04-15T03:33:49;5.18;;;4.15;;
70313;SDS011;57725;47.526;18.986;2023-04-15T03:36:14;5.68;;;4.20;;
70313;SDS011;57725;47.526;18.986;2023-04-15T03:38:40;5.38;;;4.25;;
70313;SDS011;57725;47.526;18.986;2023-04-15T03:41:06;6.00;;;4.75;;
70313;SDS011;57725;47.526;18.986;2023-04-15T03:43:34;5.97;;;4.35;;
70313;SDS011;57725;47.526;18.986;2023-04-15T03:45:59;5.40;;;4.47;;
70313;SDS011;57725;47.526;18.986;2023-04-15T03:48:27;5.32;;;4.28;;
70313;SDS011;57725;47.526;18.986;2023-04-15T03:50:53;6.20;;;3.83;;
70313;SDS011;57725;47.526;18.986;2023-04-15T03:53:20;5.60;;;4.60;;
70313;SDS011;57725;47.526;18.986;2023-04-15T03:55:48;6.15;;;4.78;;
70313;SDS011;57725;47.526;18.986;2023-04-15T03:58:16;4.68;;;4.10;;
70313;SDS011;57725;47.526;18.986;2023-04-15T04:00:44;5.30;;;4.03;;
70313;SDS011;57725;47.526;18.986;2023-04-15T04:03:10;5.38;;;4.13;;
70313;SDS011;57725;47.526;18.986;2023-04-15T04:05:35;5.72;;;4.68;;
70313;SDS011;57725;47.526;18.986;2023-04-15T04:08:03;5.72;;;4.68;;
70313;SDS011;57725;47.526;18.986;2023-04-15T04:10:28;6.38;;;4.55;;
70313;SDS011;57725;47.526;18.986;2023-04-15T04:12:56;5.63;;;4.15;;
70313;SDS011;57725;47.526;18.986;2023-04-15T04:15:22;5.78;;;4.53;;
70313;SDS011;57725;47.526;18.986;2023-04-15T04:17:47;5.32;;;4.20;;
70313;SDS011;57725;47.526;18.986;2023-04-15T04:20:13;5.50;;;4.47;;
70313;SDS011;57725;47.526;18.986;2023-04-15T04:22:40;5.82;;;4.30;;
70313;SDS011;57725;47.526;18.986;2023-04-15T04:25:06;5.85;;;4.18;;
70313;SDS011;57725;47.526;18.986;2023-04-15T04:27:37;9.45;;;4.65;;
70313;SDS011;57725;47.526;18.986;2023-04-15T04:30:03;5.05;;;4.10;;
70313;SDS011;57725;47.526;18.986;2023-04-15T04:32:30;5.60;;;4.38;;
70313;SDS011;57725;47.526;18.986;2023-04-15T04:34:58;5.18;;;4.10;;
70313;SDS011;57725;47.526;18.986;2023-04-15T04:37:25;5.30;;;4.05;;
70313;SDS011;57725;47.526;18.986;2023-04-15T04:39:51;6.68;;;4.55;;
70313;SDS011;57725;47.526;18.986;2023-04-15T04:42:16;5.95;;;4.53;;
70313;SDS011;57725;47.526;18.986;2023-04-15T04:44:41;5.47;;;4.53;;
70313;SDS011;57725;47.526;18.986;2023-04-15T04:47:07;5.63;;;4.32;;
70313;SDS011;57725;47.526;18.986;2023-04-15T04:49:32;5.55;;;3.88;;
70313;SDS011;57725;47.526;18.986;2023-04-15T04:51:58;6.10;;;4.40;;
70313;SDS011;57725;47.526;18.986;2023-04-15T04:54:26;6.45;;;4.50;;
70313;SDS011;57725;47.526;18.986;2023-04-15T04:56:55;5.80;;;4.55;;
70313;SDS011;57725;47.526;18.986;2023-04-15T04:59:21;5.80;;;4.28;;
70313;SDS011;57725;47.526;18.986;2023-04-15T05:01:47;5.63;;;3.97;;
70313;SDS011;57725;47.526;18.986;2023-04-15T05:04:12;6.07;;;4.28;;
70313;SDS011;57725;47.526;18.986;2023-04-15T05:06:38;5.57;;;4.22;;
70313;SDS011;57725;47.526;18.986;2023-04-15T05:09:03;5.82;;;4.40;;
70313;SDS011;57725;47.526;18.986;2023-04-15T05:11:34;5.20;;;3.75;;
70313;SDS011;57725;47.526;18.986;2023-04-15T05:13:59;4.88;;;3.90;;
70313;SDS011;57725;47.526;18.986;2023-04-15T05:16:27;5.10;;;4.10;;
70313;SDS011;57725;47.526;18.986;2023-04-15T05:18:52;5.05;;;4.18;;
70313;SDS011;57725;47.526;18.986;2023-04-15T05:21:18;5.28;;;4.30;;
70313;SDS011;57725;47.526;18.986;2023-04-15T05:23:44;5.55;;;4.20;;
70313;SDS011;57725;47.526;18.986;2023-04-15T05:26:10;5.15;;;3.90;;
70313;SDS011;57725;47.526;18.986;2023-04-15T05:28:35;5.40;;;3.90;;
70313;SDS011;57725;47.526;18.986;2023-04-15T05:31:03;5.10;;;4.03;;
70313;SDS011;57725;47.526;18.986;2023-04-15T05:33:29;4.68;;;4.05;;
70313;SDS011;57725;47.526;18.986;2023-04-15T05:35:54;4.97;;;3.80;;
70313;SDS011;57725;47.526;18.986;2023-04-15T05:38:22;5.43;;;4.10;;
70313;SDS011;57725;47.526;18.986;2023-04-15T05:40:51;5.75;;;3.85;;
70313;SDS011;57725;47.526;18.986;2023-04-15T05:43:19;4.90;;;3.75;;
70313;SDS011;57725;47.526;18.986;2023-04-15T05:45:44;4.30;;;3.47;;
70313;SDS011;57725;47.526;18.986;2023-04-15T05:48:10;4.65;;;3.88;;
70313;SDS011;57725;47.526;18.986;2023-04-15T05:50:39;4.82;;;3.85;;
70313;SDS011;57725;47.526;18.986;2023-04-15T05:53:05;4.68;;;3.80;;
70313;SDS011;57725;47.526;18.986;2023-04-15T05:55:34;6.47;;;4.10;;
70313;SDS011;57725;47.526;18.986;2023-04-15T05:58:00;4.60;;;3.67;;
70313;SDS011;57725;47.526;18.986;2023-04-15T06:00:26;4.97;;;3.90;;
70313;SDS011;57725;47.526;18.986;2023-04-15T06:02:51;4.95;;;3.53;;
70313;SDS011;57725;47.526;18.986;2023-04-15T06:05:20;4.80;;;3.55;;
70313;SDS011;57725;47.526;18.986;2023-04-15T06:07:45;4.45;;;3.63;;
70313;SDS011;57725;47.526;18.986;2023-04-15T06:10:15;4.65;;;3.70;;
70313;SDS011;57725;47.526;18.986;2023-04-15T06:12:41;4.60;;;3.80;;
70313;SDS011;57725;47.526;18.986;2023-04-15T06:15:06;6.43;;;3.58;;
70313;SDS011;57725;47.526;18.986;2023-04-15T06:17:36;5.45;;;4.30;;
70313;SDS011;57725;47.526;18.986;2023-04-15T06:20:02;4.60;;;3.70;;
70313;SDS011;57725;47.526;18.986;2023-04-15T06:22:30;4.97;;;3.70;;
70313;SDS011;57725;47.526;18.986;2023-04-15T06:24:55;4.40;;;3.65;;
70313;SDS011;57725;47.526;18.986;2023-04-15T06:27:21;4.45;;;3.28;;
70313;SDS011;57725;47.526;18.986;2023-04-15T06:29:47;3.60;;;3.17;;
70313;SDS011;57725;47.526;18.986;2023-04-15T06:32:12;4.60;;;3.47;;
70313;SDS011;57725;47.526;18.986;2023-04-15T06:34:40;4.43;;;3.50;;
70313;SDS011;57725;47.526;18.986;2023-04-15T06:37:05;5.35;;;3.97;;
70313;SDS011;57725;47.526;18.986;2023-04-15T06:39:31;5.30;;;3.80;;
70313;SDS011;57725;47.526;18.986;2023-04-15T06:41:56;3.85;;;3.10;;
70313;SDS011;57725;47.526;18.986;2023-04-15T06:44:24;4.22;;;3.50;;
70313;SDS011;57725;47.526;18.986;2023-04-15T06:46:51;2.95;;;2.63;;
70313;SDS011;57725;47.526;18.986;2023-04-15T06:49:17;4.38;;;3.42;;
70313;SDS011;57725;47.526;18.986;2023-04-15T06:51:50;4.65;;;3.35;;
70313;SDS011;57725;47.526;18.986;2023-04-15T06:54:15;4.35;;;3.45;;
70313;SDS011;57725;47.526;18.986;2023-04-15T06:56:41;4.15;;;3.47;;
70313;SDS011;57725;47.526;18.986;2023-04-15T06:59:07;3.97;;;3.20;;
70313;SDS011;57725;47.526;18.986;2023-04-15T07:01:34;4.70;;;3.47;;
70313;SDS011;57725;47.526;18.986;2023-04-15T07:04:00;4.28;;;3.65;;
70313;SDS011;57725;47.526;18.986;2023-04-15T07:06:27;4.20;;;3.13;;
70313;SDS011;57725;47.526;18.986;2023-04-15T07:08:56;4.50;;;3.28;;
70313;SDS011;57725;47.526;18.986;2023-04-15T07:11:25;4.57;;;3.42;;
70313;SDS011;57725;47.526;18.986;2023-04-15T07:13:53;4.05;;;3.30;;
70313;SDS011;57725;47.526;18.986;2023-04-15T07:16:34;4.22;;;3.22;;
70313;SDS011;57725;47.526;18.986;2023-04-15T07:18:59;4.65;;;3.70;;
70313;SDS011;57725;47.526;18.986;2023-04-15T07:21:25;4.20;;;3.33;;
70313;SDS011;57725;47.526;18.986;2023-04-15T07:23:54;4.05;;;3.30;;
70313;SDS011;57725;47.526;18.986;2023-04-15T07:26:22;4.95;;;3.67;;
70313;SDS011;57725;47.526;18.986;2023-04-15T07:28:48;3.13;;;2.55;;
70313;SDS011;57725;47.526;18.986;2023-04-15T07:31:14;3.60;;;2.85;;
70313;SDS011;57725;47.526;18.986;2023-04-15T07:33:44;3.85;;;2.90;;
70313;SDS011;57725;47.526;18.986;2023-04-15T07:36:10;4.03;;;3.15;;
70313;SDS011;57725;47.526;18.986;2023-04-15T07:38:35;3.40;;;2.78;;
70313;SDS011;57725;47.526;18.986;2023-04-15T07:41:03;4.00;;;3.30;;
70313;SDS011;57725;47.526;18.986;2023-04-15T07:43:28;3.88;;;3.25;;
70313;SDS011;57725;47.526;18.986;2023-04-15T07:45:54;3.75;;;3.08;;
70313;SDS011;57725;47.526;18.986;2023-04-15T07:48:19;4.60;;;3.15;;
70313;SDS011;57725;47.526;18.986;2023-04-15T07:50:47;3.67;;;2.90;;
70313;SDS011;57725;47.526;18.986;2023-04-15T07:53:12;4.05;;;3.20;;
70313;SDS011;57725;47.526;18.986;2023-04-15T07:55:38;3.85;;;2.70;;
70313;SDS011;57725;47.526;18.986;2023-04-15T07:58:04;3.72;;;2.80;;
70313;SDS011;57725;47.526;18.986;2023-04-15T08:00:29;3.10;;;2.75;;
70313;SDS011;57725;47.526;18.986;2023-04-15T08:02:56;3.53;;;3.08;;
70313;SDS011;57725;47.526;18.986;2023-04-15T08:05:23;3.70;;;2.65;;
70313;SDS011;57725;47.526;18.986;2023-04-15T08:07:51;2.97;;;2.67;;
70313;SDS011;57725;47.526;18.986;2023-04-15T08:10:20;3.80;;;2.92;;
70313;SDS011;57725;47.526;18.986;2023-04-15T08:12:48;2.60;;;2.40;;
70313;SDS011;57725;47.526;18.986;2023-04-15T08:15:13;3.60;;;2.70;;
70313;SDS011;57725;47.526;18.986;2023-04-15T08:17:43;2.90;;;2.45;;
70313;SDS011;57725;47.526;18.986;2023-04-15T08:20:09;3.28;;;2.50;;
70313;SDS011;57725;47.526;18.986;2023-04-15T08:22:34;2.90;;;2.55;;
70313;SDS011;57725;47.526;18.986;2023-04-15T08:25:00;3.15;;;2.35;;
70313;SDS011;57725;47.526;18.986;2023-04-15T08:27:26;2.92;;;2.40;;
70313;SDS011;57725;47.526;18.986;2023-04-15T08:29:54;2.72;;;2.13;;
70313;SDS011;57725;47.526;18.986;2023-04-15T08:32:24;2.70;;;2.28;;
70313;SDS011;57725;47.526;18.986;2023-04-15T08:34:52;4.43;;;3.15;;
70313;SDS011;57725;47.526;18.986;2023-04-15T08:37:17;3.53;;;2.58;;
70313;SDS011;57725;47.526;18.986;2023-04-15T08:39:42;3.38;;;2.53;;
70313;SDS011;57725;47.526;18.986;2023-04-15T08:42:15;2.13;;;1.60;;
70313;SDS011;57725;47.526;18.986;2023-04-15T08:44:43;2.40;;;2.13;;
70313;SDS011;57725;47.526;18.986;2023-04-15T08:47:11;2.80;;;2.00;;
70313;SDS011;57725;47.526;18.986;2023-04-15T08:49:44;2.88;;;2.20;;
70313;SDS011;57725;47.526;18.986;2023-04-15T08:52:17;3.40;;;2.42;;
70313;SDS011;57725;47.526;18.986;2023-04-15T08:54:43;2.30;;;1.90;;
70313;SDS011;57725;47.526;18.986;2023-04-15T08:57:09;3.20;;;2.00;;
70313;SDS011;57725;47.526;18.986;2023-04-15T08:59:38;3.28;;;2.28;;
70313;SDS011;57725;47.526;18.986;2023-04-15T09:02:04;2.92;;;2.20;;
70313;SDS011;57725;47.526;18.986;2023-04-15T09:04:29;2.10;;;1.55;;
70313;SDS011;57725;47.526;18.986;2023-04-15T09:06:55;2.80;;;2.20;;
70313;SDS011;57725;47.526;18.986;2023-04-15T09:09:21;2.90;;;2.17;;
70313;SDS011;57725;47.526;18.986;2023-04-15T09:11:48;2.22;;;1.70;;
70313;SDS011;57725;47.526;18.986;2023-04-15T09:14:15;3.03;;;1.95;;
70313;SDS011;57725;47.526;18.986;2023-04-15T09:17:02;2.60;;;2.28;;
70313;SDS011;57725;47.526;18.986;2023-04-15T09:19:34;2.63;;;1.77;;
70313;SDS011;57725;47.526;18.986;2023-04-15T09:22:01;2.75;;;2.10;;
70313;SDS011;57725;47.526;18.986;2023-04-15T09:24:34;2.75;;;1.85;;
70313;SDS011;57725;47.526;18.986;2023-04-15T09:27:02;2.60;;;2.03;;
70313;SDS011;57725;47.526;18.986;2023-04-15T09:29:28;2.10;;;1.80;;
70313;SDS011;57725;47.526;18.986;2023-04-15T09:32:13;3.55;;;2.28;;
70313;SDS011;57725;47.526;18.986;2023-04-15T09:34:42;2.40;;;1.77;;
70313;SDS011;57725;47.526;18.986;2023-04-15T09:37:10;3.00;;;2.30;;
70313;SDS011;57725;47.526;18.986;2023-04-15T09:39:46;2.75;;;1.98;;
70313;SDS011;57725;47.526;18.986;2023-04-15T09:42:16;2.58;;;1.83;;
70313;SDS011;57725;47.526;18.986;2023-04-15T09:44:48;2.45;;;1.77;;
70313;SDS011;57725;47.526;18.986;2023-04-15T09:47:26;2.70;;;1.92;;
70313;SDS011;57725;47.526;18.986;2023-04-15T09:49:55;2.90;;;1.90;;
70313;SDS011;57725;47.526;18.986;2023-04-15T09:52:25;2.50;;;1.88;;
70313;SDS011;57725;47.526;18.986;2023-04-15T09:54:55;2.95;;;2.10;;
70313;SDS011;57725;47.526;18.986;2023-04-15T09:57:22;1.48;;;1.33;;
70313;SDS011;57725;47.526;18.986;2023-04-15T09:59:48;2.58;;;2.15;;
70313;SDS011;57725;47.526;18.986;2023-04-15T10:02:17;2.83;;;1.98;;
70313;SDS011;57725;47.526;18.986;2023-04-15T10:04:44;2.33;;;1.95;;
70313;SDS011;57725;47.526;18.986;2023-04-15T10:07:12;2.42;;;1.83;;
70313;SDS011;57725;47.526;18.986;2023-04-15T10:09:39;3.00;;;1.80;;
70313;SDS011;57725;47.526;18.986;2023-04-15T10:12:05;2.42;;;1.83;;
70313;SDS011;57725;47.526;18.986;2023-04-15T10:14:32;2.78;;;1.80;;
70313;SDS011;57725;47.526;18.986;2023-04-15T10:17:03;2.25;;;1.67;;
70313;SDS011;57725;47.526;18.986;2023-04-15T10:19:38;2.42;;;1.70;;
70313;SDS011;57725;47.526;18.986;2023-04-15T10:22:05;2.80;;;2.00;;
70313;SDS011;57725;47.526;18.986;2023-04-15T10:24:36;2.78;;;1.90;;
70313;SDS011;57725;47.526;18.986;2023-04-15T10:27:03;2.20;;;1.88;;
70313;SDS011;57725;47.526;18.986;2023-04-15T10:29:30;1.88;;;1.50;;
70313;SDS011;57725;47.526;18.986;2023-04-15T10:31:58;2.38;;;1.52;;
70313;SDS011;57725;47.526;18.986;2023-04-15T10:34:25;2.15;;;1.75;;
70313;SDS011;57725;47.526;18.986;2023-04-15T10:36:54;2.67;;;1.85;;
70313;SDS011;57725;47.526;18.986;2023-04-15T10:44:36;1.88;;;1.30;;
70313;SDS011;57725;47.526;18.986;2023-04-15T10:47:13;2.20;;;1.45;;
70313;SDS011;57725;47.526;18.986;2023-04-15T10:49:43;2.55;;;1.52;;
70313;SDS011;57725;47.526;18.986;2023-04-15T10:52:14;1.95;;;1.58;;
70313;SDS011;57725;47.526;18.986;2023-04-15T10:54:41;1.70;;;1.40;;
70313;SDS011;57725;47.526;18.986;2023-04-15T10:57:22;2.42;;;2.00;;
70313;SDS011;57725;47.526;18.986;2023-04-15T11:02:32;2.45;;;1.60;;
70313;SDS011;57725;47.526;18.986;2023-04-15T11:05:02;2.38;;;1.70;;
70313;SDS011;57725;47.526;18.986;2023-04-15T11:07:33;1.98;;;1.35;;
70313;SDS011;57725;47.526;18.986;2023-04-15T11:15:38;1.58;;;1.23;;
70313;SDS011;57725;47.526;18.986;2023-04-15T11:18:19;1.85;;;1.30;;
70313;SDS011;57725;47.526;18.986;2023-04-15T11:23:14;2.33;;;1.40;;
70313;SDS011;57725;47.526;18.986;2023-04-15T11:25:44;1.75;;;1.40;;
70313;SDS011;57725;47.526;18.986;2023-04-15T11:28:11;1.33;;;1.10;;
70313;SDS011;57725;47.526;18.986;2023-04-15T11:30:40;2.38;;;1.20;;
70313;SDS011;57725;47.526;18.986;2023-04-15T11:33:10;1.35;;;1.20;;
70313;SDS011;57725;47.526;18.986;2023-04-15T11:35:36;1.48;;;1.10;;
70313;SDS011;57725;47.526;18.986;2023-04-15T11:38:07;1.60;;;1.35;;
70313;SDS011;57725;47.526;18.986;2023-04-15T11:40:34;1.05;;;0.70;;
70313;SDS011;57725;47.526;18.986;2023-04-15T11:43:12;1.60;;;1.13;;
70313;SDS011;57725;47.526;18.986;2023-04-15T11:48:15;1.60;;;1.27;;
70313;SDS011;57725;47.526;18.986;2023-04-15T11:50:41;1.50;;;0.98;;
70313;SDS011;57725;47.526;18.986;2023-04-15T11:53:08;1.38;;;1.02;;
70313;SDS011;57725;47.526;18.986;2023-04-15T11:55:45;1.23;;;0.90;;
70313;SDS011;57725;47.526;18.986;2023-04-15T11:58:23;2.17;;;1.33;;
70313;SDS011;57725;47.526;18.986;2023-04-15T12:00:59;1.35;;;0.80;;
70313;SDS011;57725;47.526;18.986;2023-04-15T12:13:52;1.08;;;0.70;;
70313;SDS011;57725;47.526;18.986;2023-04-15T12:16:23;1.30;;;0.70;;
70313;SDS011;57725;47.526;18.986;2023-04-15T12:18:52;1.40;;;0.90;;
70313;SDS011;57725;47.526;18.986;2023-04-15T12:21:23;1.30;;;1.05;;
70313;SDS011;57725;47.526;18.986;2023-04-15T12:23:52;1.33;;;0.77;;
70313;SDS011;57725;47.526;18.986;2023-04-15T12:26:26;1.50;;;1.15;;
70313;SDS011;57725;47.526;18.986;2023-04-15T12:29:05;1.40;;;1.20;;
70313;SDS011;57725;47.526;18.986;2023-04-15T12:31:35;1.10;;;0.77;;
70313;SDS011;57725;47.526;18.986;2023-04-15T12:34:01;1.70;;;0.73;;
70313;SDS011;57725;47.526;18.986;2023-04-15T12:36:31;1.13;;;0.85;;
70313;SDS011;57725;47.526;18.986;2023-04-15T12:39:03;1.08;;;0.65;;
70313;SDS011;57725;47.526;18.986;2023-04-15T12:41:31;1.05;;;0.68;;
70313;SDS011;57725;47.526;18.986;2023-04-15T12:44:01;0.90;;;0.70;;
70313;SDS011;57725;47.526;18.986;2023-04-15T12:46:27;1.00;;;0.70;;
70313;SDS011;57725;47.526;18.986;2023-04-15T12:48:53;0.98;;;0.80;;
70313;SDS011;57725;47.526;18.986;2023-04-15T12:51:21;1.70;;;1.00;;
70313;SDS011;57725;47.526;18.986;2023-04-15T12:53:46;0.93;;;0.80;;
70313;SDS011;57725;47.526;18.986;2023-04-15T12:56:13;1.38;;;0.98;;
70313;SDS011;57725;47.526;18.986;2023-04-15T12:58:55;1.17;;;0.57;;
70313;SDS011;57725;47.526;18.986;2023-04-15T13:01:23;0.80;;;0.50;;
70313;SDS011;57725;47.526;18.986;2023-04-15T13:03:49;1.17;;;0.60;;
70313;SDS011;57725;47.526;18.986;2023-04-15T13:06:19;1.15;;;0.75;;
70313;SDS011;57725;47.526;18.986;2023-04-15T13:08:45;1.08;;;0.55;;
70313;SDS011;57725;47.526;18.986;2023-04-15T13:11:10;0.70;;;0.40;;
70313;SDS011;57725;47.526;18.986;2023-04-15T13:13:36;1.00;;;0.60;;
70313;SDS011;57725;47.526;18.986;2023-04-15T13:16:04;1.10;;;0.80;;
70313;SDS011;57725;47.526;18.986;2023-04-15T13:18:32;1.35;;;0.75;;
70313;SDS011;57725;47.526;18.986;2023-04-15T13:20:58;0.68;;;0.50;;
70313;SDS011;57725;47.526;18.986;2023-04-15T13:23:24;1.50;;;1.00;;
70313;SDS011;57725;47.526;18.986;2023-04-15T13:25:50;0.90;;;0.60;;
70313;SDS011;57725;47.526;18.986;2023-04-15T13:28:18;0.70;;;0.50;;
70313;SDS011;57725;47.526;18.986;2023-04-15T13:30:43;1.00;;;0.52;;
70313;SDS011;57725;47.526;18.986;2023-04-15T13:33:09;1.75;;;0.55;;
70313;SDS011;57725;47.526;18.986;2023-04-15T13:35:35;0.90;;;0.60;;
70313;SDS011;57725;47.526;18.986;2023-04-15T13:38:01;1.45;;;0.60;;
70313;SDS011;57725;47.526;18.986;2023-04-15T13:40:26;1.20;;;0.70;;
70313;SDS011;57725;47.526;18.986;2023-04-15T13:42:52;1.15;;;0.50;;
70313;SDS011;57725;47.526;18.986;2023-04-15T13:45:17;0.73;;;0.50;;
70313;SDS011;57725;47.526;18.986;2023-04-15T13:47:43;0.75;;;0.52;;
70313;SDS011;57725;47.526;18.986;2023-04-15T13:50:11;0.80;;;0.50;;
70313;SDS011;57725;47.526;18.986;2023-04-15T13:52:36;0.82;;;0.50;;
70313;SDS011;57725;47.526;18.986;2023-04-15T13:55:06;0.90;;;0.50;;
70313;SDS011;57725;47.526;18.986;2023-04-15T13:57:32;0.93;;;0.52;;
70313;SDS011;57725;47.526;18.986;2023-04-15T14:00:00;0.82;;;0.52;;
70313;SDS011;57725;47.526;18.986;2023-04-15T14:02:26;1.35;;;0.70;;
70313;SDS011;57725;47.526;18.986;2023-04-15T14:04:56;0.85;;;0.50;;
70313;SDS011;57725;47.526;18.986;2023-04-15T14:07:23;0.90;;;0.80;;
70313;SDS011;57725;47.526;18.986;2023-04-15T14:09:51;0.77;;;0.50;;
70313;SDS011;57725;47.526;18.986;2023-04-15T14:12:19;0.85;;;0.45;;
70313;SDS011;57725;47.526;18.986;2023-04-15T14:14:47;0.90;;;0.70;;
70313;SDS011;57725;47.526;18.986;2023-04-15T14:17:12;1.25;;;0.50;;
70313;SDS011;57725;47.526;18.986;2023-04-15T14:19:38;0.80;;;0.60;;
70313;SDS011;57725;47.526;18.986;2023-04-15T14:22:06;0.75;;;0.50;;
70313;SDS011;57725;47.526;18.986;2023-04-15T14:24:31;0.90;;;0.55;;
70313;SDS011;57725;47.526;18.986;2023-04-15T14:26:57;0.70;;;0.50;;
70313;SDS011;57725;47.526;18.986;2023-04-15T14:29:26;1.08;;;0.30;;
70313;SDS011;57725;47.526;18.986;2023-04-15T14:31:55;0.80;;;0.50;;
70313;SDS011;57725;47.526;18.986;2023-04-15T14:34:21;1.20;;;0.52;;
70313;SDS011;57725;47.526;18.986;2023-04-15T14:36:49;0.98;;;0.63;;
70313;SDS011;57725;47.526;18.986;2023-04-15T14:39:17;1.27;;;0.60;;
70313;SDS011;57725;47.526;18.986;2023-04-15T14:41:45;0.80;;;0.52;;
70313;SDS011;57725;47.526;18.986;2023-04-15T14:44:11;0.73;;;0.47;;
70313;SDS011;57725;47.526;18.986;2023-04-15T14:46:39;0.70;;;0.50;;
70313;SDS011;57725;47.526;18.986;2023-04-15T14:49:05;0.80;;;0.55;;
70313;SDS011;57725;47.526;18.986;2023-04-15T14:51:31;0.50;;;0.38;;
70313;SDS011;57725;47.526;18.986;2023-04-15T14:54:01;0.70;;;0.50;;
70313;SDS011;57725;47.526;18.986;2023-04-15T14:56:26;1.00;;;0.60;;
70313;SDS011;57725;47.526;18.986;2023-04-15T14:58:52;0.68;;;0.40;;
70313;SDS011;57725;47.526;18.986;2023-04-15T15:01:20;0.88;;;0.47;;
70313;SDS011;57725;47.526;18.986;2023-04-15T15:03:48;0.65;;;0.43;;